Time;durP1;ratioP1;P1;durP2;ratioP2;P2;SDS_P1;SDS_P2;PMS_P1;PMS_P2;Temp;Humidity;BMP_temperature;BMP_pressure;BME280_temperature;BME280_humidity;BME280_pressure;Samples;Min_cycle;Max_cycle;Signal;HPM_P1;HPM_P2
2021/10/29 00:00:55;;;;;;;;;;;;;;;7.50;51.89;95357.91;5005821;28;19972;-60
2021/10/29 00:03:22;;;;;;;;;;;;;;;7.85;51.22;95357.78;5005823;28;20237;-61
2021/10/29 00:05:47;;;;;;;;;;;;;;;7.72;52.04;95356.41;5005470;28;20216;-59
2021/10/29 00:08:12;;;;;;;;;;;;;;;7.63;51.82;95358.28;5001696;28;20402;-59
2021/10/29 00:10:38;;;;;;;;;;;;;;;7.88;50.47;95355.63;4996826;28;19932;-61
2021/10/29 00:13:03;;;;;;;;;;;;;;;7.94;51.34;95343.53;4993313;28;19925;-63
2021/10/29 00:15:28;;;;;;;;;;;;;;;7.90;51.21;95352.81;4986378;28;20195;-60
2021/10/29 00:17:53;;;;;;;;;;;;;;;7.96;50.88;95344.16;4998005;28;20286;-61
2021/10/29 00:20:19;;;;;;;;;;;;;;;8.14;50.02;95335.19;4992379;28;19918;-62
2021/10/29 00:22:44;;;;;;;;;;;;;;;8.11;50.01;95341.69;4989774;28;20017;-61
2021/10/29 00:25:09;;;;;;;;;;;;;;;8.00;50.64;95345.50;5000148;28;20378;-60
2021/10/29 00:27:35;;;;;;;;;;;;;;;8.14;50.37;95343.16;5001755;28;20392;-61
2021/10/29 00:30:00;;;;;;;;;;;;;;;8.30;49.59;95345.75;5000529;28;19945;-62
2021/10/29 00:32:27;;;;;;;;;;;;;;;8.17;49.74;95334.88;5000053;28;19913;-60
2021/10/29 00:34:52;;;;;;;;;;;;;;;8.26;49.90;95338.34;5000901;28;19925;-63
2021/10/29 00:37:18;;;;;;;;;;;;;;;8.17;49.80;95345.47;4996847;28;20377;-61
2021/10/29 00:39:43;;;;;;;;;;;;;;;8.09;50.62;95335.69;5001424;28;19922;-61
2021/10/29 00:42:08;;;;;;;;;;;;;;;8.23;49.73;95343.97;4999291;28;19929;-63
2021/10/29 00:44:34;;;;;;;;;;;;;;;8.39;49.09;95337.78;4999268;28;20433;-63
2021/10/29 00:46:59;;;;;;;;;;;;;;;8.34;49.09;95345.44;5001278;28;19921;-61
2021/10/29 00:49:24;;;;;;;;;;;;;;;8.32;49.30;95337.63;4999201;28;20310;-61
2021/10/29 00:51:50;;;;;;;;;;;;;;;8.30;49.26;95334.34;5001163;28;19925;-63
2021/10/29 00:54:15;;;;;;;;;;;;;;;8.25;49.75;95336.66;5000504;28;19926;-62
2021/10/29 00:56:41;;;;;;;;;;;;;;;8.01;50.40;95325.13;5000896;28;19918;-62
2021/10/29 00:59:06;;;;;;;;;;;;;;;8.26;49.36;95328.53;5000949;28;20425;-63
2021/10/29 01:01:31;;;;;;;;;;;;;;;8.34;49.09;95321.56;5001026;28;19968;-62
2021/10/29 01:03:57;;;;;;;;;;;;;;;8.17;50.38;95326.91;5000778;28;19984;-62
2021/10/29 01:06:22;;;;;;;;;;;;;;;8.29;49.08;95327.34;4999338;28;19937;-62
2021/10/29 01:08:47;;;;;;;;;;;;;;;8.09;49.36;95324.28;4999408;28;19922;-63
2021/10/29 01:11:13;;;;;;;;;;;;;;;7.97;50.35;95329.09;4987478;28;19918;-62
2021/10/29 01:13:39;;;;;;;;;;;;;;;8.22;49.00;95319.25;5000757;28;20287;-63
2021/10/29 01:16:05;;;;;;;;;;;;;;;8.22;48.82;95327.22;5000564;28;19921;-60
2021/10/29 01:18:31;;;;;;;;;;;;;;;8.01;49.40;95325.94;5000809;28;19953;-61
2021/10/29 01:20:56;;;;;;;;;;;;;;;8.04;49.30;95324.78;5000800;28;20357;-62
2021/10/29 01:23:22;;;;;;;;;;;;;;;8.09;49.52;95316.34;4999478;28;19925;-63
2021/10/29 01:25:47;;;;;;;;;;;;;;;7.98;49.76;95314.84;5000680;28;19921;-62
2021/10/29 01:28:12;;;;;;;;;;;;;;;7.99;49.53;95309.38;5000816;28;19929;-64
2021/10/29 01:30:38;;;;;;;;;;;;;;;7.89;49.65;95303.44;5000756;28;19917;-62
2021/10/29 01:33:03;;;;;;;;;;;;;;;8.00;49.24;95305.75;5004074;28;19929;-63
2021/10/29 01:35:29;;;;;;;;;;;;;;;7.91;49.57;95309.41;5001409;28;19918;-63
2021/10/29 01:37:54;;;;;;;;;;;;;;;8.09;48.62;95303.06;5004020;28;20364;-60
2021/10/29 01:40:19;;;;;;;;;;;;;;;8.09;48.50;95295.13;5005238;28;19920;-64
2021/10/29 01:42:45;;;;;;;;;;;;;;;7.94;49.47;95303.75;5004199;28;19926;-63
2021/10/29 01:45:11;;;;;;;;;;;;;;;7.89;49.57;95292.84;5002813;28;20394;-63
2021/10/29 01:47:36;;;;;;;;;;;;;;;7.89;49.84;95295.50;5004115;28;19918;-60
2021/10/29 01:50:01;;;;;;;;;;;;;;;7.77;49.59;95287.06;4996888;28;20063;-62
2021/10/29 01:52:28;;;;;;;;;;;;;;;7.88;49.21;95280.56;5004238;28;20299;-63
2021/10/29 01:54:53;;;;;;;;;;;;;;;7.78;49.26;95284.25;5004417;28;19921;-61
2021/10/29 01:57:18;;;;;;;;;;;;;;;7.77;49.07;95285.25;5003842;28;20161;-63
2021/10/29 01:59:44;;;;;;;;;;;;;;;7.65;49.53;95281.28;5004525;28;19921;-61
2021/10/29 02:02:09;;;;;;;;;;;;;;;7.66;49.49;95270.47;5003815;28;20563;-60
2021/10/29 02:04:34;;;;;;;;;;;;;;;7.59;49.35;95273.97;5004171;28;19928;-63
2021/10/29 02:06:59;;;;;;;;;;;;;;;7.63;48.88;95267.34;5002716;28;19976;-61
2021/10/29 02:09:25;;;;;;;;;;;;;;;7.56;48.99;95271.66;5004220;28;19928;-61
2021/10/29 02:11:50;;;;;;;;;;;;;;;7.50;49.38;95265.19;5004228;28;19918;-62
2021/10/29 02:14:15;;;;;;;;;;;;;;;7.56;48.84;95269.00;5002406;28;20318;-63
2021/10/29 02:16:41;;;;;;;;;;;;;;;7.41;49.75;95264.38;5003416;28;19914;-61
2021/10/29 02:19:06;;;;;;;;;;;;;;;7.13;51.64;95262.91;5004097;28;19941;-63
2021/10/29 02:21:32;;;;;;;;;;;;;;;7.10;51.36;95260.59;5003582;28;20566;-62
2021/10/29 02:23:58;;;;;;;;;;;;;;;7.22;50.72;95258.44;5004184;28;19928;-60
2021/10/29 02:26:23;;;;;;;;;;;;;;;7.09;51.04;95251.00;5003585;28;20008;-62
2021/10/29 02:28:49;;;;;;;;;;;;;;;6.99;51.67;95247.66;5003161;28;19991;-61
2021/10/29 02:31:14;;;;;;;;;;;;;;;7.21;50.64;95245.38;5003878;28;19939;-63
2021/10/29 02:33:40;;;;;;;;;;;;;;;7.08;51.79;95248.50;5003401;28;19918;-63
2021/10/29 02:36:05;;;;;;;;;;;;;;;7.05;50.63;95241.72;4999792;28;19964;-63
2021/10/29 02:38:30;;;;;;;;;;;;;;;7.12;50.06;95234.78;5003339;28;20359;-64
2021/10/29 02:40:55;;;;;;;;;;;;;;;7.07;49.94;95228.34;5003378;28;19917;-64
2021/10/29 02:43:21;;;;;;;;;;;;;;;7.11;49.75;95234.94;5002166;28;19922;-58
2021/10/29 02:45:46;;;;;;;;;;;;;;;6.96;50.16;95238.25;5003278;28;19924;-62
2021/10/29 02:48:12;;;;;;;;;;;;;;;6.82;50.39;95237.06;4998377;28;19913;-61
2021/10/29 02:50:38;;;;;;;;;;;;;;;6.58;51.49;95241.34;5000456;28;19969;-62
2021/10/29 02:53:05;;;;;;;;;;;;;;;6.71;50.75;95235.59;5003124;28;20282;-60
2021/10/29 02:55:30;;;;;;;;;;;;;;;6.87;50.81;95228.66;5003499;28;19909;-63
2021/10/29 02:57:56;;;;;;;;;;;;;;;6.80;50.56;95227.66;5003339;28;20389;-61
2021/10/29 03:00:21;;;;;;;;;;;;;;;6.77;50.41;95223.53;5003495;28;20361;-63
2021/10/29 03:02:46;;;;;;;;;;;;;;;6.64;50.61;95221.34;5002945;28;20369;-63
2021/10/29 03:05:12;;;;;;;;;;;;;;;6.62;50.87;95221.50;5002746;28;19917;-63
2021/10/29 03:07:38;;;;;;;;;;;;;;;6.59;50.73;95219.19;5001938;28;19918;-62
2021/10/29 03:10:04;;;;;;;;;;;;;;;6.34;51.50;95212.97;5002616;28;20012;-62
2021/10/29 03:12:29;;;;;;;;;;;;;;;6.54;51.09;95218.00;5003125;28;20133;-61
2021/10/29 03:14:55;;;;;;;;;;;;;;;6.62;50.78;95216.22;5002508;28;19918;-62
2021/10/29 03:17:20;;;;;;;;;;;;;;;6.45;51.14;95212.69;5002574;28;19980;-63
2021/10/29 03:19:45;;;;;;;;;;;;;;;6.38;51.21;95216.94;5002738;28;19913;-64
2021/10/29 03:22:10;;;;;;;;;;;;;;;6.49;50.97;95213.19;5002702;28;20360;-63
2021/10/29 03:24:36;;;;;;;;;;;;;;;6.33;52.00;95214.78;5002855;28;20393;-61
2021/10/29 03:27:01;;;;;;;;;;;;;;;6.20;52.20;95217.06;5002588;28;20016;-63
2021/10/29 03:29:26;;;;;;;;;;;;;;;6.33;52.16;95211.31;5001811;28;19930;-61
2021/10/29 03:31:52;;;;;;;;;;;;;;;6.06;53.67;95216.66;5002702;28;19925;-63
2021/10/29 03:34:17;;;;;;;;;;;;;;;5.93;53.90;95213.66;5002160;28;20045;-63
2021/10/29 03:36:42;;;;;;;;;;;;;;;6.06;52.60;95207.94;4998121;28;20362;-63
2021/10/29 03:39:32;;;;;;;;;;;;;;;6.06;53.15;95213.22;5002545;28;19941;-61
2021/10/29 03:42:00;;;;;;;;;;;;;;;6.32;51.67;95207.03;5002295;28;19957;-61
2021/10/29 03:46:56;;;;;;;;;;;;;;;6.06;52.32;95200.00;5002240;28;19930;-61
2021/10/29 03:49:32;;;;;;;;;;;;;;;6.15;51.48;95198.22;4993158;28;19921;-59
2021/10/29 03:52:07;;;;;;;;;;;;;;;6.04;52.02;95202.81;5002083;28;19921;-61
2021/10/29 03:54:34;;;;;;;;;;;;;;;6.19;51.10;95199.56;5001599;28;19949;-61
2021/10/29 03:59:27;;;;;;;;;;;;;;;6.16;50.80;95200.72;5002378;28;19914;-60
2021/10/29 04:01:53;;;;;;;;;;;;;;;5.90;51.99;95192.84;4997730;28;19925;-59
2021/10/29 04:04:18;;;;;;;;;;;;;;;6.07;51.42;95196.38;5002229;28;19922;-62
2021/10/29 04:06:43;;;;;;;;;;;;;;;5.67;54.43;95199.50;5001312;28;19926;-63
2021/10/29 04:09:08;;;;;;;;;;;;;;;5.66;54.23;95194.38;5001841;28;19917;-60
2021/10/29 04:11:37;;;;;;;;;;;;;;;5.89;52.34;95197.31;5001818;28;19925;-60
2021/10/29 04:14:05;;;;;;;;;;;;;;;5.70;53.19;95193.91;5001120;28;19989;-59
2021/10/29 04:16:33;;;;;;;;;;;;;;;5.61;53.36;95197.47;5001661;28;19920;-62
2021/10/29 04:18:58;;;;;;;;;;;;;;;5.71;52.84;95197.38;5000361;28;19921;-61
2021/10/29 04:21:23;;;;;;;;;;;;;;;6.05;51.46;95188.59;5001228;28;19932;-61
2021/10/29 04:23:49;;;;;;;;;;;;;;;6.11;51.54;95190.63;5001992;28;20390;-60
2021/10/29 04:26:14;;;;;;;;;;;;;;;6.08;51.31;95182.16;5001208;28;19918;-62
2021/10/29 04:28:42;;;;;;;;;;;;;;;6.23;50.61;95177.91;5001511;28;19988;-58
2021/10/29 04:31:10;;;;;;;;;;;;;;;6.23;50.77;95180.56;5001592;28;19940;-57
2021/10/29 04:33:35;;;;;;;;;;;;;;;6.17;50.70;95181.22;5001535;28;20387;-60
2021/10/29 04:36:00;;;;;;;;;;;;;;;6.22;50.96;95184.19;4997163;28;20002;-60
2021/10/29 04:38:26;;;;;;;;;;;;;;;6.13;51.07;95175.41;5001162;28;20112;-58
2021/10/29 04:40:51;;;;;;;;;;;;;;;5.98;51.68;95177.84;5000906;28;20036;-60
2021/10/29 04:43:16;;;;;;;;;;;;;;;6.08;51.64;95169.78;5001593;28;20012;-57
2021/10/29 04:45:42;;;;;;;;;;;;;;;5.92;51.90;95167.91;5001488;28;20386;-62
2021/10/29 04:48:07;;;;;;;;;;;;;;;6.08;51.73;95166.31;4996853;28;20386;-60
2021/10/29 04:50:32;;;;;;;;;;;;;;;5.74;53.70;95165.34;4997088;28;20483;-61
2021/10/29 04:52:58;;;;;;;;;;;;;;;5.80;53.23;95170.03;5001101;28;20008;-61
2021/10/29 04:55:24;;;;;;;;;;;;;;;5.95;52.38;95166.78;5001877;28;19913;-57
2021/10/29 04:57:49;;;;;;;;;;;;;;;5.74;53.14;95166.19;5001057;28;19944;-59
2021/10/29 05:00:14;;;;;;;;;;;;;;;6.01;51.51;95160.84;5000796;28;19940;-59
2021/10/29 05:02:40;;;;;;;;;;;;;;;6.06;51.38;95166.47;5001051;28;19921;-60
2021/10/29 05:05:06;;;;;;;;;;;;;;;6.15;51.26;95163.88;5000757;28;19918;-59
2021/10/29 05:07:31;;;;;;;;;;;;;;;6.27;50.87;95161.72;5004502;28;19936;-58
2021/10/29 05:09:56;;;;;;;;;;;;;;;6.18;51.16;95156.44;5004931;28;19917;-60
2021/10/29 05:12:22;;;;;;;;;;;;;;;6.24;51.27;95158.44;5004644;28;19921;-62
2021/10/29 05:14:47;;;;;;;;;;;;;;;6.31;50.96;95161.25;5004547;28;19929;-63
2021/10/29 05:17:12;;;;;;;;;;;;;;;6.33;51.31;95163.75;5004471;28;20007;-60
2021/10/29 05:19:38;;;;;;;;;;;;;;;6.09;52.07;95160.84;5005119;28;20521;-63
2021/10/29 05:22:04;;;;;;;;;;;;;;;6.08;52.00;95156.56;5004738;28;19998;-60
2021/10/29 05:24:29;;;;;;;;;;;;;;;6.04;52.59;95157.03;5004674;28;19994;-62
2021/10/29 05:26:54;;;;;;;;;;;;;;;6.10;51.96;95146.69;5004348;28;19989;-61
2021/10/29 05:29:19;;;;;;;;;;;;;;;6.14;51.68;95149.81;5004029;28;20002;-63
2021/10/29 05:31:45;;;;;;;;;;;;;;;6.20;51.58;95156.28;5004797;28;20429;-60
2021/10/29 05:34:10;;;;;;;;;;;;;;;6.20;51.40;95153.63;5004292;28;19993;-60
2021/10/29 05:36:38;;;;;;;;;;;;;;;6.13;51.36;95148.97;5000712;28;20057;-60
2021/10/29 05:39:04;;;;;;;;;;;;;;;5.90;51.58;95153.19;5004289;28;19994;-63
2021/10/29 05:41:29;;;;;;;;;;;;;;;6.01;51.72;95152.09;5003883;28;20052;-61
2021/10/29 05:43:54;;;;;;;;;;;;;;;5.91;51.85;95142.47;5004219;28;20260;-61
2021/10/29 05:46:22;;;;;;;;;;;;;;;5.86;52.30;95144.78;5004275;28;20056;-62
2021/10/29 05:48:48;;;;;;;;;;;;;;;6.03;51.49;95142.19;4995495;28;20153;-63
2021/10/29 05:51:14;;;;;;;;;;;;;;;6.06;51.18;95141.88;5003066;28;20072;-61
2021/10/29 05:53:52;;;;;;;;;;;;;;;6.08;51.39;95143.34;5003831;28;20025;-63
2021/10/29 05:56:21;;;;;;;;;;;;;;;5.94;51.83;95136.88;5004465;28;20158;-60
2021/10/29 05:58:46;;;;;;;;;;;;;;;5.64;53.49;95144.34;5002441;28;19990;-62
2021/10/29 06:01:11;;;;;;;;;;;;;;;5.93;51.75;95137.03;5004039;28;19996;-64
2021/10/29 06:03:37;;;;;;;;;;;;;;;6.03;51.74;95139.53;5003932;28;19985;-63
2021/10/29 06:06:02;;;;;;;;;;;;;;;6.02;51.84;95135.25;5003491;28;19996;-63
2021/10/29 06:08:27;;;;;;;;;;;;;;;6.09;51.62;95141.53;5003861;28;20036;-62
2021/10/29 06:10:53;;;;;;;;;;;;;;;6.15;51.12;95134.78;4996814;28;20158;-63
2021/10/29 06:13:18;;;;;;;;;;;;;;;6.05;51.38;95146.31;4998776;28;20000;-63
2021/10/29 06:15:45;;;;;;;;;;;;;;;6.06;51.28;95141.88;5000051;28;19961;-61
2021/10/29 06:18:12;;;;;;;;;;;;;;;5.97;51.63;95144.50;4999230;28;20614;-63
2021/10/29 06:20:38;;;;;;;;;;;;;;;5.96;51.81;95145.44;4999637;28;20382;-61
2021/10/29 06:23:06;;;;;;;;;;;;;;;6.09;51.52;95136.25;4998869;28;19926;-60
2021/10/29 06:25:40;;;;;;;;;;;;;;;6.12;51.84;95147.31;4990198;28;19925;-59
2021/10/29 06:30:37;;;;;;;;;;;;;;;6.19;51.77;95134.28;4998781;28;19937;-61
2021/10/29 06:33:03;;;;;;;;;;;;;;;6.31;51.63;95132.16;4999075;28;19925;-60
2021/10/29 06:35:29;;;;;;;;;;;;;;;6.28;51.73;95129.00;4998741;28;20253;-62
2021/10/29 06:37:55;;;;;;;;;;;;;;;6.40;51.64;95127.72;4996205;28;19921;-58
2021/10/29 06:40:20;;;;;;;;;;;;;;;6.53;51.73;95126.44;4997957;28;19923;-60
2021/10/29 06:42:55;;;;;;;;;;;;;;;6.48;51.52;95111.91;4998629;28;19926;-61
2021/10/29 06:48:03;;;;;;;;;;;;;;;6.44;52.62;95109.69;4998879;28;20011;-60
2021/10/29 07:39:59;;;;;;;;;;;;;;;7.66;51.30;95129.25;4997220;28;19963;-62
2021/10/29 07:42:29;;;;;;;;;;;;;;;7.73;50.85;95116.97;4996712;28;19988;-60
2021/10/29 07:44:54;;;;;;;;;;;;;;;7.62;52.14;95131.38;4996992;28;20391;-62
2021/10/29 07:47:20;;;;;;;;;;;;;;;7.30;53.93;95127.00;5000495;28;20024;-60
2021/10/29 07:49:45;;;;;;;;;;;;;;;7.33;54.48;95139.91;4999579;28;19925;-62
2021/10/29 07:52:10;;;;;;;;;;;;;;;7.47;53.67;95139.22;4999548;28;20239;-63
2021/10/29 07:54:37;;;;;;;;;;;;;;;7.63;53.31;95137.53;4999160;28;19956;-63
2021/10/29 07:57:03;;;;;;;;;;;;;;;7.61;53.15;95137.69;4999599;28;19922;-64
2021/10/29 07:59:28;;;;;;;;;;;;;;;7.84;51.99;95133.50;4999495;28;20091;-63
2021/10/29 08:01:53;;;;;;;;;;;;;;;8.30;50.24;95130.91;4999186;28;19936;-64
2021/10/29 08:04:21;;;;;;;;;;;;;;;8.65;49.16;95127.03;4999446;28;20095;-62
2021/10/29 08:06:48;;;;;;;;;;;;;;;8.46;50.45;95138.97;4998519;28;20016;-61
2021/10/29 08:09:13;;;;;;;;;;;;;;;8.66;49.08;95126.88;4999702;28;20351;-60
2021/10/29 08:11:38;;;;;;;;;;;;;;;8.71;48.26;95138.78;4997506;28;20371;-64
2021/10/29 08:14:04;;;;;;;;;;;;;;;8.86;48.06;95142.31;4996779;28;19979;-63
2021/10/29 08:16:30;;;;;;;;;;;;;;;8.73;49.20;95137.59;4997591;28;19921;-64
2021/10/29 08:18:56;;;;;;;;;;;;;;;8.61;49.09;95141.66;4998547;28;19930;-62
2021/10/29 08:21:21;;;;;;;;;;;;;;;9.12;47.37;95135.81;4998252;28;19921;-61
2021/10/29 08:23:46;;;;;;;;;;;;;;;8.84;49.50;95132.88;4998826;28;19972;-64
2021/10/29 08:26:12;;;;;;;;;;;;;;;8.97;47.74;95137.59;4998855;28;20317;-64
2021/10/29 08:28:38;;;;;;;;;;;;;;;8.88;48.47;95140.28;4999261;28;19932;-63
2021/10/29 08:31:03;;;;;;;;;;;;;;;9.04;47.48;95136.69;4999000;28;20008;-64
2021/10/29 08:33:28;;;;;;;;;;;;;;;9.17;48.26;95135.25;4998647;28;19921;-62
2021/10/29 08:35:53;;;;;;;;;;;;;;;9.51;47.65;95139.22;4998924;28;19933;-63
2021/10/29 08:38:21;;;;;;;;;;;;;;;9.24;48.29;95136.19;4998088;28;19932;-64
2021/10/29 08:40:46;;;;;;;;;;;;;;;9.26;48.23;95139.50;4997453;28;20312;-62
2021/10/29 08:43:12;;;;;;;;;;;;;;;9.37;47.66;95137.38;4999236;28;19944;-63
2021/10/29 08:45:37;;;;;;;;;;;;;;;9.50;47.91;95142.91;4996576;28;20409;-62
2021/10/29 08:48:03;;;;;;;;;;;;;;;9.66;47.82;95143.72;4996580;28;19928;-61
2021/10/29 08:50:28;;;;;;;;;;;;;;;9.55;48.55;95145.81;4996323;28;20303;-64
2021/10/29 08:52:53;;;;;;;;;;;;;;;10.05;46.68;95134.63;4997927;28;19925;-64
2021/10/29 08:55:25;;;;;;;;;;;;;;;10.03;46.88;95135.81;4998197;28;19965;-63
2021/10/29 08:57:50;;;;;;;;;;;;;;;10.16;46.79;95135.16;4986787;28;19922;-75
2021/10/29 09:00:17;;;;;;;;;;;;;;;10.17;46.64;95132.28;4997469;28;19933;-64
2021/10/29 09:02:49;;;;;;;;;;;;;;;10.39;46.20;95128.84;4998530;28;19926;-67
2021/10/29 09:05:25;;;;;;;;;;;;;;;10.48;46.21;95128.53;4997859;28;19929;-68
2021/10/29 09:08:03;;;;;;;;;;;;;;;10.27;46.11;95134.66;4997974;28;20202;-65
2021/10/29 09:32:35;;;;;;;;;;;;;;;11.25;43.78;95127.16;5001276;28;20012;-75
2021/10/29 09:35:03;;;;;;;;;;;;;;;11.07;43.88;95120.44;5000886;28;19975;-75
2021/10/29 09:37:35;;;;;;;;;;;;;;;11.06;43.93;95112.66;4999404;28;19922;-75
2021/10/29 09:40:06;;;;;;;;;;;;;;;11.18;43.95;95110.31;5001649;28;20457;-75
2021/10/29 09:42:36;;;;;;;;;;;;;;;11.10;43.95;95109.44;5000916;28;19929;-75
2021/10/29 09:45:10;;;;;;;;;;;;;;;11.28;42.92;95113.44;5000714;28;19931;-75
2021/10/29 09:47:35;;;;;;;;;;;;;;;11.02;43.36;95106.06;4989258;28;19926;-76
2021/10/29 09:50:11;;;;;;;;;;;;;;;11.31;43.46;95107.72;4984853;28;20103;-75
2021/10/29 09:52:50;;;;;;;;;;;;;;;11.50;43.27;95110.72;5002900;28;19963;-75
2021/10/29 09:55:22;;;;;;;;;;;;;;;11.58;42.86;95107.06;5004797;28;19926;-75
2021/10/29 09:57:47;;;;;;;;;;;;;;;11.83;42.48;95109.25;5004871;28;20408;-76
2021/10/29 10:00:13;;;;;;;;;;;;;;;11.83;41.88;95112.72;5006141;28;19917;-76
2021/10/29 10:02:42;;;;;;;;;;;;;;;11.82;42.02;95113.75;4988397;28;20472;-76
2021/10/29 10:05:07;;;;;;;;;;;;;;;12.11;41.53;95098.50;5004138;28;20052;-75
2021/10/29 10:07:34;;;;;;;;;;;;;;;12.62;41.56;95107.00;4987122;28;20235;-75
2021/10/29 10:09:59;;;;;;;;;;;;;;;13.17;40.04;95099.88;5004222;28;19925;-75
2021/10/29 10:12:28;;;;;;;;;;;;;;;13.41;39.99;95097.56;5004699;28;19921;-75
2021/10/29 10:14:54;;;;;;;;;;;;;;;13.43;39.00;95101.69;4997287;28;19971;-75
2021/10/29 10:17:19;;;;;;;;;;;;;;;13.53;38.36;95095.91;5004079;28;19929;-74
2021/10/29 10:19:45;;;;;;;;;;;;;;;13.98;37.70;95098.88;4995791;28;20338;-75
2021/10/29 10:22:14;;;;;;;;;;;;;;;13.99;37.21;95084.44;5004335;28;20265;-71
2021/10/29 10:24:40;;;;;;;;;;;;;;;14.20;36.69;95086.84;5004157;28;19917;-74
2021/10/29 10:30:05;;;;;;;;;;;;;;;14.24;37.57;95081.06;5004109;28;20030;-74
2021/10/29 10:41:06;;;;;;;;;;;;;;;14.61;35.06;95083.09;5003909;28;19968;-76
2021/10/29 10:48:30;;;;;;;;;;;;;;;13.35;37.18;95074.34;5004239;28;19939;-75
2021/10/29 10:51:17;;;;;;;;;;;;;;;13.95;37.40;95084.88;4987401;28;20382;-76
2021/10/29 10:53:52;;;;;;;;;;;;;;;14.66;35.76;95077.91;5018351;28;20279;-77
2021/10/29 10:59:11;;;;;;;;;;;;;;;14.00;36.62;95060.16;5003626;28;19917;-75
2021/10/29 11:04:32;;;;;;;;;;;;;;;14.57;35.58;95056.75;5004426;28;20362;-76
2021/10/29 11:07:08;;;;;;;;;;;;;;;14.16;35.46;95044.63;4983441;28;19929;-76
2021/10/29 11:09:56;;;;;;;;;;;;;;;13.43;36.83;95050.88;4998385;28;20389;-75
2021/10/29 11:12:22;;;;;;;;;;;;;;;14.22;35.83;95043.78;5004358;28;19917;-76
2021/10/29 11:15:04;;;;;;;;;;;;;;;14.12;36.04;95033.56;5001434;28;21042;-75
2021/10/29 11:17:50;;;;;;;;;;;;;;;13.50;36.55;95034.00;5002826;28;19925;-73
2021/10/29 11:20:35;;;;;;;;;;;;;;;14.23;35.70;95034.72;5003470;28;20159;-72
2021/10/29 11:23:27;;;;;;;;;;;;;;;14.00;36.05;95019.22;5003839;28;19929;-74
2021/10/29 11:26:02;;;;;;;;;;;;;;;14.49;35.31;95021.34;5001080;28;20306;-74
2021/10/29 11:28:41;;;;;;;;;;;;;;;14.95;34.53;95022.84;5003606;28;20458;-74
2021/10/29 11:31:07;;;;;;;;;;;;;;;15.53;33.73;95021.88;4986595;28;19928;-64
2021/10/29 11:33:33;;;;;;;;;;;;;;;15.56;33.58;95008.84;5003536;28;19949;-65
2021/10/29 11:36:03;;;;;;;;;;;;;;;15.75;33.00;95017.69;4996536;28;20063;-74
2021/10/29 11:38:28;;;;;;;;;;;;;;;14.97;34.69;95010.06;4999956;28;19965;-73
2021/10/29 11:40:54;;;;;;;;;;;;;;;14.28;35.48;95024.16;5001954;28;20015;-74
2021/10/29 11:43:23;;;;;;;;;;;;;;;15.00;34.31;95006.13;5000174;28;19917;-74
2021/10/29 11:45:49;;;;;;;;;;;;;;;14.52;34.84;95020.94;5002612;28;19922;-74
2021/10/29 11:48:14;;;;;;;;;;;;;;;14.71;35.75;95011.91;5002344;28;19924;-74
2021/10/29 11:50:39;;;;;;;;;;;;;;;15.00;34.88;95003.44;5002132;28;20409;-74
2021/10/29 11:53:05;;;;;;;;;;;;;;;15.35;34.11;95004.72;5002108;28;19944;-75
2021/10/29 11:55:44;;;;;;;;;;;;;;;15.96;33.48;94994.09;5002789;28;19913;-76
2021/10/29 11:58:23;;;;;;;;;;;;;;;16.48;32.65;94989.22;5002234;28;19922;-76
2021/10/29 12:09:21;;;;;;;;;;;;;;;16.92;30.44;94972.78;5002266;28;20414;-75
2021/10/29 12:11:47;;;;;;;;;;;;;;;20.40;26.94;94953.19;5002237;28;20242;-76
2021/10/29 12:14:13;;;;;;;;;;;;;;;22.13;23.47;94940.25;5002078;28;20294;-75
2021/10/29 12:16:38;;;;;;;;;;;;;;;23.53;22.72;94950.16;5002885;28;20310;-76
2021/10/29 12:19:08;;;;;;;;;;;;;;;24.90;20.11;94949.06;5002409;28;19921;-76
2021/10/29 12:21:40;;;;;;;;;;;;;;;24.83;20.14;94934.94;4985991;28;19921;-75
2021/10/29 12:24:10;;;;;;;;;;;;;;;25.98;18.94;94939.91;5002223;28;19925;-75
2021/10/29 12:26:39;;;;;;;;;;;;;;;26.38;18.42;94939.63;5001744;28;19921;-75
2021/10/29 12:29:12;;;;;;;;;;;;;;;27.68;17.75;94933.78;5002709;28;19960;-76
2021/10/29 12:32:07;;;;;;;;;;;;;;;26.88;17.33;94928.16;5003503;28;20102;-75
2021/10/29 12:38:04;;;;;;;;;;;;;;;29.21;15.73;94926.09;4983538;28;20450;-75
2021/10/29 13:02:33;;;;;;;;;;;;;;;34.82;11.42;94891.28;5002737;28;20502;-73
2021/10/29 13:04:59;;;;;;;;;;;;;;;35.45;10.67;94883.34;5001159;28;20012;-74
2021/10/29 13:07:25;;;;;;;;;;;;;;;35.67;10.82;94877.19;4985592;28;20402;-74
2021/10/29 13:09:50;;;;;;;;;;;;;;;35.47;10.70;94878.28;5001333;28;19929;-73
2021/10/29 13:12:27;;;;;;;;;;;;;;;35.20;10.35;94869.75;5002628;28;19948;-73
2021/10/29 13:15:14;;;;;;;;;;;;;;;35.57;10.04;94883.25;5002745;28;20426;-74
2021/10/29 13:17:46;;;;;;;;;;;;;;;34.99;10.43;94888.19;5002829;28;19917;-73
2021/10/29 13:36:53;;;;;;;;;;;;;;;35.28;10.43;94860.47;5005101;28;19923;-74
2021/10/29 13:52:58;;;;;;;;;;;;;;;32.02;11.81;94869.44;5004946;28;20164;-75
2021/10/29 14:35:25;;;;;;;;;;;;;;;37.42;8.91;94841.66;5004330;28;20013;-74
2021/10/29 14:51:07;;;;;;;;;;;;;;;31.58;13.17;94854.81;5004519;28;20016;-74
2021/10/29 15:44:41;;;;;;;;;;;;;;;24.00;19.28;94843.94;5003272;28;20294;-74
2021/10/29 15:47:09;;;;;;;;;;;;;;;23.17;20.01;94850.69;5003770;28;19925;-73
2021/10/29 15:49:36;;;;;;;;;;;;;;;21.75;21.69;94850.22;5001810;28;20004;-74
2021/10/29 15:52:09;;;;;;;;;;;;;;;20.58;23.62;94841.13;5003909;28;19918;-74
2021/10/29 15:54:40;;;;;;;;;;;;;;;19.88;24.06;94843.81;5004143;28;19956;-75
2021/10/29 15:57:06;;;;;;;;;;;;;;;19.30;24.23;94843.25;5002313;28;20122;-75
2021/10/29 15:59:45;;;;;;;;;;;;;;;18.24;27.50;94843.16;5002654;28;19961;-75
2021/10/29 16:18:18;;;;;;;;;;;;;;;13.65;32.86;94859.91;5002176;28;20056;-76
2021/10/29 16:20:44;;;;;;;;;;;;;;;13.00;34.53;94848.31;5001805;28;20443;-74
2021/10/29 16:23:10;;;;;;;;;;;;;;;11.65;37.03;94865.31;5002610;28;19924;-75
2021/10/29 16:25:37;;;;;;;;;;;;;;;11.92;36.78;94860.00;4986006;28;19964;-74
2021/10/29 16:28:12;;;;;;;;;;;;;;;11.86;37.16;94848.28;5002111;28;19968;-76
2021/10/29 16:30:38;;;;;;;;;;;;;;;11.65;37.30;94862.63;5001434;28;19928;-75
2021/10/29 16:35:29;;;;;;;;;;;;;;;11.17;39.33;94851.06;4999160;28;20348;-74
2021/10/29 16:37:55;;;;;;;;;;;;;;;10.79;41.44;94855.00;5000953;28;19953;-75
2021/10/29 16:40:20;;;;;;;;;;;;;;;10.77;40.52;94856.22;5003366;28;19979;-76
2021/10/29 16:42:45;;;;;;;;;;;;;;;10.66;39.35;94849.59;5001474;28;19929;-75
2021/10/29 16:45:11;;;;;;;;;;;;;;;10.81;39.10;94849.47;5001627;28;19922;-75
2021/10/29 16:47:36;;;;;;;;;;;;;;;10.49;39.70;94857.91;4985831;28;19926;-74
2021/10/29 16:50:05;;;;;;;;;;;;;;;10.24;40.03;94861.03;5001649;28;20294;-75
2021/10/29 16:52:30;;;;;;;;;;;;;;;10.18;40.14;94859.97;4985882;28;19917;-76
2021/10/29 16:54:56;;;;;;;;;;;;;;;9.85;41.75;94849.88;5001691;28;20119;-75
2021/10/29 16:57:21;;;;;;;;;;;;;;;9.91;41.39;94856.25;5003333;28;20060;-76
2021/10/29 16:59:46;;;;;;;;;;;;;;;9.94;40.87;94855.88;5002418;28;19914;-77
2021/10/29 17:02:12;;;;;;;;;;;;;;;9.71;41.86;94856.91;5002012;28;19968;-77
2021/10/29 17:04:37;;;;;;;;;;;;;;;9.59;41.64;94853.97;4985955;28;19924;-75
2021/10/29 17:07:03;;;;;;;;;;;;;;;9.13;42.40;94858.63;5001988;28;19933;-75
2021/10/29 17:09:28;;;;;;;;;;;;;;;8.95;43.42;94857.19;5001856;28;19929;-77
2021/10/29 17:11:55;;;;;;;;;;;;;;;8.66;43.57;94864.16;4985781;28;20103;-75
2021/10/29 17:14:20;;;;;;;;;;;;;;;8.66;43.88;94858.84;5001829;28;19918;-77
2021/10/29 17:16:46;;;;;;;;;;;;;;;8.72;43.26;94862.59;5001664;28;19928;-77
2021/10/29 17:19:12;;;;;;;;;;;;;;;8.77;42.60;94865.50;5002102;28;20306;-74
2021/10/29 17:21:37;;;;;;;;;;;;;;;8.60;43.44;94861.41;4984728;28;19917;-74
2021/10/29 17:24:02;;;;;;;;;;;;;;;8.79;43.02;94860.84;5001765;28;19922;-75
2021/10/29 17:26:28;;;;;;;;;;;;;;;8.71;43.45;94863.63;5000811;28;19975;-74
2021/10/29 17:28:53;;;;;;;;;;;;;;;8.78;43.20;94861.03;5000997;28;19925;-75
2021/10/29 17:31:19;;;;;;;;;;;;;;;8.51;44.90;94861.53;5002806;28;19928;-74
2021/10/29 17:33:45;;;;;;;;;;;;;;;8.59;44.58;94865.06;5002974;28;19917;-76
2021/10/29 17:36:10;;;;;;;;;;;;;;;8.39;46.34;94870.91;4997717;28;19924;-76
2021/10/29 17:38:36;;;;;;;;;;;;;;;8.70;43.97;94869.91;5002931;28;19921;-75
2021/10/29 17:41:02;;;;;;;;;;;;;;;8.80;43.09;94881.06;5002755;28;20405;-75
2021/10/29 17:43:27;;;;;;;;;;;;;;;8.78;44.03;94882.25;5003359;28;19925;-75